MSC Nuria — 3ESE2 — position and weather

sailwx.info

Track history (hours):
 
Tides and Currents Weather Stations Pressure Air Temp Water Temp Dewpoint Dewpoint Depression Visibility Wind Speed Wind Dir Waves Ship Positions

MSC Nuria

Last reported at 2017-Apr-24 18:49 UTC. Time now 2017-Apr-25 16:34 UTC.
Position N 34°56' E 129°11'.

Length 275 m; draft 10 m.

Type: Ship (hazmat cat A). MMSI: 370272977.

Date/timePositionNaut miles runAvg speedWind from/ knotsBaromVisibWave heightAir tempDewpointWater temp
2017-Apr-24 18:49N 34°56' E 129°11'819.6
2017-Apr-24 18:26N 34°55' E 129°02'1413.6
2017-Apr-24 17:26N 35°02' E 128°47'3 7.1
2017-Apr-24 17:00N 35°05' E 128°47'0 0.1
2017-Apr-24 16:09N 35°05' E 128°47'0 0.0
2017-Apr-24 15:35N 35°05' E 128°47'0 0.0
2017-Apr-24 15:26N 35°05' E 128°47'0 0.0
2017-Apr-24 13:53N 35°05' E 128°47'0 0.0
2017-Apr-24 13:29N 35°05' E 128°47'0 0.0
2017-Apr-24 12:46N 35°05' E 128°47'0 0.0
2017-Apr-24 12:28N 35°05' E 128°47'0 0.0
2017-Apr-24 11:28N 35°05' E 128°47'0 0.0
2017-Apr-24 09:15N 35°05' E 128°47'0 0.0
2017-Apr-24 05:32N 35°05' E 128°47'0 0.3
2017-Apr-24 05:30N 35°05' E 128°47'9 4.5
2017-Apr-24 03:27N 34°56' E 128°51'1 1.8
2017-Apr-24 03:00N 34°55' E 128°51'3 6.7
2017-Apr-24 02:29N 34°53' E 128°54'1 2.0
2017-Apr-24 01:51N 34°52' E 128°53'1 1.8
2017-Apr-24 01:30N 34°51' E 128°53'1 2.5
2017-Apr-24 01:00N 34°50' E 128°52'3 5.8
2017-Apr-24 00:24N 34°47' E 128°51'6 9.7
2017-Apr-23 23:47N 34°41' E 128°51'3 9.8
2017-Apr-23 23:30N 34°38' E 128°50'  
2017-Apr-21 14:12N 23°59' E 118°27'2419.4
2017-Apr-21 12:59N 23°42' E 118°09'21 0.5
2017-Apr-19 21:59N 24°02' E 118°17'919.6
2017-Apr-19 21:30N 24°12' E 118°17'815.3
2017-Apr-19 21:00N 24°18' E 118°12'713.5
2017-Apr-19 20:31N 24°23' E 118°07'5 9.0
2017-Apr-19 20:00N 24°26' E 118°03'1 2.5
2017-Apr-19 19:30N 24°26' E 118°02'0 0.0
2017-Apr-19 18:58N 24°26' E 118°02'0 0.0
2017-Apr-19 18:28N 24°26' E 118°02'0 0.0
2017-Apr-19 17:55N 24°26' E 118°02'0 0.0
2017-Apr-19 17:28N 24°26' E 118°02'0 0.0
2017-Apr-19 16:58N 24°26' E 118°02'0 0.0
2017-Apr-19 16:30N 24°26' E 118°02'0 0.0
2017-Apr-19 16:00N 24°26' E 118°02'1 2.4
2017-Apr-19 15:30N 24°26' E 118°03'5 9.5
2017-Apr-19 15:00N 24°23' E 118°07'5 9.6
2017-Apr-19 14:30N 24°20' E 118°11'9 7.0
2017-Apr-19 13:13N 24°14' E 118°19'  
Track history (hours):
 
Tides and Currents Weather Stations Pressure Air Temp Water Temp Dewpoint Dewpoint Depression Visibility Wind Speed Wind Dir Waves Ship Positions

MSC Nuria

Last reported at 2017-Apr-24 18:49 UTC. Time now 2017-Apr-25 16:34 UTC.
Position N 34°56' E 129°11'.

Length 275 m; draft 10 m.

Type: Ship (hazmat cat A). MMSI: 370272977.

Date/timePositionNaut miles runAvg speedWind from/ knotsBaromVisibWave heightAir tempDewpointWater temp
2017-Apr-24 18:49N 34°56' E 129°11'819.6
2017-Apr-24 18:26N 34°55' E 129°02'1413.6
2017-Apr-24 17:26N 35°02' E 128°47'3 7.1
2017-Apr-24 17:00N 35°05' E 128°47'0 0.1
2017-Apr-24 16:09N 35°05' E 128°47'0 0.0
2017-Apr-24 15:35N 35°05' E 128°47'0 0.0
2017-Apr-24 15:26N 35°05' E 128°47'0 0.0
2017-Apr-24 13:53N 35°05' E 128°47'0 0.0
2017-Apr-24 13:29N 35°05' E 128°47'0 0.0
2017-Apr-24 12:46N 35°05' E 128°47'0 0.0
2017-Apr-24 12:28N 35°05' E 128°47'0 0.0
2017-Apr-24 11:28N 35°05' E 128°47'0 0.0
2017-Apr-24 09:15N 35°05' E 128°47'0 0.0
2017-Apr-24 05:32N 35°05' E 128°47'0 0.3
2017-Apr-24 05:30N 35°05' E 128°47'9 4.5
2017-Apr-24 03:27N 34°56' E 128°51'1 1.8
2017-Apr-24 03:00N 34°55' E 128°51'3 6.7
2017-Apr-24 02:29N 34°53' E 128°54'1 2.0
2017-Apr-24 01:51N 34°52' E 128°53'1 1.8
2017-Apr-24 01:30N 34°51' E 128°53'1 2.5
2017-Apr-24 01:00N 34°50' E 128°52'3 5.8
2017-Apr-24 00:24N 34°47' E 128°51'6 9.7
2017-Apr-23 23:47N 34°41' E 128°51'3 9.8
2017-Apr-23 23:30N 34°38' E 128°50'  
2017-Apr-21 14:12N 23°59' E 118°27'2419.4
2017-Apr-21 12:59N 23°42' E 118°09'21 0.5
2017-Apr-19 21:59N 24°02' E 118°17'919.6
2017-Apr-19 21:30N 24°12' E 118°17'815.3
2017-Apr-19 21:00N 24°18' E 118°12'713.5
2017-Apr-19 20:31N 24°23' E 118°07'5 9.0
2017-Apr-19 20:00N 24°26' E 118°03'1 2.5
2017-Apr-19 19:30N 24°26' E 118°02'0 0.0
2017-Apr-19 18:58N 24°26' E 118°02'0 0.0
2017-Apr-19 18:28N 24°26' E 118°02'0 0.0
2017-Apr-19 17:55N 24°26' E 118°02'0 0.0
2017-Apr-19 17:28N 24°26' E 118°02'0 0.0
2017-Apr-19 16:58N 24°26' E 118°02'0 0.0
2017-Apr-19 16:30N 24°26' E 118°02'0 0.0
2017-Apr-19 16:00N 24°26' E 118°02'1 2.4
2017-Apr-19 15:30N 24°26' E 118°03'5 9.5
2017-Apr-19 15:00N 24°23' E 118°07'5 9.6
2017-Apr-19 14:30N 24°20' E 118°11'9 7.0
2017-Apr-19 13:13N 24°14' E 118°19'  

Dump ship's entire track history